createdAt,value
2023-01-31T00:04:49.415Z,97271.16
2023-01-31T00:09:51.582Z,97304.66
2023-01-31T00:14:53.715Z,97296.94
2023-01-31T00:19:55.828Z,97309.88
2023-01-31T00:24:58.078Z,97274.53
2023-01-31T00:30:00.346Z,97292.59
2023-01-31T00:35:02.553Z,97298.59
2023-01-31T00:40:07.150Z,97296.06
2023-01-31T00:45:09.779Z,97282.22
2023-01-31T00:50:15.151Z,97320.13
2023-01-31T00:55:18.402Z,97310.53
2023-01-31T01:00:20.982Z,97313.09
2023-01-31T01:05:23.545Z,97333.78
2023-01-31T01:10:26.149Z,97324.22
2023-01-31T01:15:28.437Z,97330.31
2023-01-31T01:20:31.185Z,97329.44
2023-01-31T01:25:42.975Z,97303.63
2023-01-31T01:30:45.083Z,97344.06
2023-01-31T01:35:47.240Z,97321.66
2023-01-31T01:40:49.396Z,97323.41
2023-01-31T01:45:53.223Z,97332.06
2023-01-31T01:50:55.467Z,97333.00
2023-01-31T01:56:14.492Z,97312.50
2023-01-31T02:01:17.206Z,97327.94
2023-01-31T02:06:22.308Z,97292.53
2023-01-31T02:11:27.388Z,97297.78
2023-01-31T02:16:30.312Z,97324.47
2023-01-31T02:21:54.587Z,97335.56
2023-01-31T02:27:09.289Z,97329.66
2023-01-31T02:32:16.257Z,97335.63
2023-01-31T02:37:38.328Z,97318.41
2023-01-31T02:42:54.652Z,97335.63
2023-01-31T02:48:27.456Z,97324.47
2023-01-31T02:53:51.923Z,97317.63
2023-01-31T02:59:13.564Z,97334.78
2023-01-31T03:04:15.832Z,97341.59
2023-01-31T03:09:28.555Z,97344.91
2023-01-31T03:14:36.424Z,97358.69
2023-01-31T03:19:51.929Z,97339.78
2023-01-31T03:24:54.573Z,97345.75
2023-01-31T03:30:02.050Z,97369.84
2023-01-31T03:35:06.972Z,97371.56
2023-01-31T03:40:32.548Z,97348.38
2023-01-31T03:45:55.257Z,97360.53
2023-01-31T03:51:00.387Z,97350.88
2023-01-31T03:56:25.539Z,97364.66
2023-01-31T04:01:29.318Z,97365.44
2023-01-31T04:06:32.225Z,97358.50
2023-01-31T04:11:43.797Z,97368.94
2023-01-31T04:16:46.192Z,97376.63
2023-01-31T04:21:48.451Z,97327.50
2023-01-31T04:26:50.694Z,97354.25
2023-01-31T04:31:53.082Z,97380.03
2023-01-31T04:36:55.339Z,97368.75
2023-01-31T04:41:57.553Z,97393.66
2023-01-31T04:47:00.090Z,97409.19
2023-01-31T04:52:02.535Z,97391.94
2023-01-31T04:57:04.995Z,97392.91
2023-01-31T05:02:16.892Z,97372.97
2023-01-31T05:07:25.308Z,97397.91
2023-01-31T05:12:28.715Z,97397.84
2023-01-31T05:17:31.435Z,97403.03
2023-01-31T05:22:34.150Z,97424.56
2023-01-31T05:27:36.364Z,97432.25
2023-01-31T05:32:40.337Z,97438.31
2023-01-31T05:37:46.353Z,97420.22
2023-01-31T05:43:00.871Z,97448.66
2023-01-31T05:48:03.523Z,97433.16
2023-01-31T05:53:06.296Z,97445.16
2023-01-31T05:58:11.658Z,97413.28
2023-01-31T06:03:13.857Z,97438.28
2023-01-31T06:08:18.820Z,97446.81
2023-01-31T06:13:23.690Z,97427.88
2023-01-31T06:18:26.730Z,97465.78
2023-01-31T06:23:29.033Z,97439.94
2023-01-31T06:28:31.821Z,97438.16
2023-01-31T06:33:44.662Z,97465.63
2023-01-31T06:38:51.281Z,97496.59
2023-01-31T06:43:55.178Z,97502.56
2023-01-31T06:48:57.614Z,97493.97
2023-01-31T06:53:59.814Z,97509.47
2023-01-31T06:59:02.202Z,97477.63
2023-01-31T07:04:04.510Z,97487.13
2023-01-31T07:09:07.735Z,97488.78
2023-01-31T07:14:10.017Z,97522.38
2023-01-31T07:19:12.170Z,97510.25
2023-01-31T07:24:14.399Z,97497.22
2023-01-31T07:29:16.607Z,97501.66
2023-01-31T07:34:21.491Z,97539.50
2023-01-31T07:39:24.069Z,97528.34
2023-01-31T07:44:26.398Z,97548.09
2023-01-31T07:49:28.598Z,97545.56
2023-01-31T07:54:30.819Z,97501.47
2023-01-31T07:59:36.056Z,97535.06
2023-01-31T08:04:38.507Z,97533.31
2023-01-31T08:09:40.776Z,97551.41
2023-01-31T08:14:50.613Z,97558.34
2023-01-31T08:19:54.887Z,97572.84
2023-01-31T08:24:58.895Z,97534.91
2023-01-31T08:30:01.051Z,97599.66
2023-01-31T08:35:03.610Z,97587.59
2023-01-31T08:40:06.570Z,97585.88
2023-01-31T08:45:09.309Z,97567.91
2023-01-31T08:50:26.808Z,97592.94
2023-01-31T08:55:31.272Z,97568.94
2023-01-31T09:00:34.399Z,97568.94
2023-01-31T09:05:36.824Z,97548.34
2023-01-31T09:10:39.657Z,97536.38
2023-01-31T09:15:41.834Z,97538.81
2023-01-31T09:20:43.902Z,97547.53
2023-01-31T09:25:55.335Z,97587.28
2023-01-31T09:31:03.459Z,97588.13
2023-01-31T09:36:07.530Z,97595.88
2023-01-31T09:41:30.945Z,97584.03
2023-01-31T09:46:38.032Z,97578.03
2023-01-31T09:51:40.658Z,97584.84
2023-01-31T09:56:50.846Z,97571.16
2023-01-31T10:02:17.120Z,97584.13
2023-01-31T10:07:44.489Z,97597.03
2023-01-31T10:12:52.432Z,97594.41
2023-01-31T10:18:02.739Z,97576.31
2023-01-31T10:23:13.699Z,97601.31
2023-01-31T10:28:21.779Z,97620.19
2023-01-31T10:33:30.385Z,97620.19
2023-01-31T10:38:46.067Z,97583.19
2023-01-31T10:43:58.146Z,97578.81
2023-01-31T10:49:00.416Z,97582.22
2023-01-31T10:54:23.638Z,97621.09
2023-01-31T10:59:38.095Z,97590.94
2023-01-31T11:04:46.142Z,97607.47
2023-01-31T11:09:54.647Z,97600.59
2023-01-31T11:15:14.992Z,97600.72
2023-01-31T11:20:32.374Z,97602.47
2023-01-31T11:25:36.206Z,97588.53
2023-01-31T11:30:42.761Z,97617.03
2023-01-31T11:35:52.192Z,97594.63
2023-01-31T11:40:54.433Z,97537.75
2023-01-31T11:46:01.706Z,97603.34
2023-01-31T11:51:04.872Z,97605.91
2023-01-31T11:56:14.070Z,97618.88
2023-01-31T12:01:23.754Z,97590.44
2023-01-31T12:06:37.389Z,97623.34
2023-01-31T12:11:53.155Z,97593.06
2023-01-31T12:16:56.686Z,97621.50
2023-01-31T12:22:40.061Z,97619.81
2023-01-31T12:28:01.912Z,97631.00
2023-01-31T12:33:17.246Z,97622.38
2023-01-31T12:38:28.491Z,97631.81
2023-01-31T12:43:48.882Z,97624.13
2023-01-31T12:49:15.149Z,97626.78
2023-01-31T12:54:30.920Z,97634.41
2023-01-31T12:59:45.455Z,97646.47
2023-01-31T13:04:50.795Z,97652.44
2023-01-31T13:09:54.294Z,97649.75
2023-01-31T13:15:07.927Z,97677.25
2023-01-31T13:20:37.275Z,97679.88
2023-01-31T13:25:43.549Z,97677.19
2023-01-31T13:31:00.148Z,97690.94
2023-01-31T13:36:26.206Z,97653.78
2023-01-31T13:41:40.232Z,97677.94
2023-01-31T13:46:53.385Z,97681.31
2023-01-31T13:52:14.373Z,97709.81
2023-01-31T13:57:45.770Z,97689.13
2023-01-31T14:03:08.433Z,97694.38
2023-01-31T14:08:29.598Z,97700.41
2023-01-31T14:13:31.787Z,97712.34
2023-01-31T14:18:39.349Z,97705.44
2023-01-31T14:23:47.484Z,97663.06
2023-01-31T14:28:52.849Z,97717.50
2023-01-31T14:33:57.680Z,97717.50
2023-01-31T14:39:12.306Z,97718.41
2023-01-31T14:44:30.650Z,97721.81
2023-01-31T14:49:40.195Z,97731.25
2023-01-31T14:55:04.169Z,97721.84
2023-01-31T15:00:20.944Z,97728.69
2023-01-31T15:05:41.105Z,97735.56
2023-01-31T15:10:58.660Z,97748.41
2023-01-31T15:16:02.109Z,97737.13
2023-01-31T15:21:06.202Z,97704.38
2023-01-31T15:26:09.569Z,97751.81
2023-01-31T15:31:23.860Z,97745.00
2023-01-31T15:36:32.605Z,97756.13
2023-01-31T15:41:40.396Z,97757.84
2023-01-31T15:46:45.417Z,97704.25
2023-01-31T15:52:08.416Z,97742.38
2023-01-31T15:57:16.285Z,97745.78
2023-01-31T16:02:33.716Z,97739.69
2023-01-31T16:07:35.969Z,97768.00
2023-01-31T16:12:42.566Z,97778.34
2023-01-31T16:17:45.181Z,97774.03
2023-01-31T16:22:56.775Z,97752.44
2023-01-31T16:28:11.419Z,97783.56
2023-01-31T16:33:19.066Z,97786.09
2023-01-31T16:38:27.275Z,97792.94
2023-01-31T16:43:31.125Z,97782.50
2023-01-31T16:48:36.181Z,97766.91
2023-01-31T16:53:40.302Z,97764.34
2023-01-31T16:58:56.601Z,97810.03
2023-01-31T17:04:13.448Z,97803.97
2023-01-31T17:09:20.240Z,97704.66
2023-01-31T17:19:41.583Z,97745.19
2023-01-31T17:24:45.084Z,97765.09
2023-01-31T17:29:47.664Z,97791.91
2023-01-31T17:34:49.912Z,97814.38
2023-01-31T17:39:52.685Z,97794.47
2023-01-31T17:44:56.247Z,97824.66
2023-01-31T17:50:00.445Z,97803.91
2023-01-31T17:55:06.441Z,97736.59
2023-01-31T18:00:12.961Z,97744.41
2023-01-31T18:05:20.490Z,97706.13
2023-01-31T18:10:27.929Z,97755.66
2023-01-31T18:15:31.406Z,97675.78
2023-01-31T18:20:33.740Z,97809.09
2023-01-31T18:25:39.894Z,97576.84
2023-01-31T18:30:42.329Z,97676.63
2023-01-31T18:35:45.089Z,97838.41
2023-01-31T18:40:47.526Z,97258.88
2023-01-31T18:45:52.591Z,97315.34
2023-01-31T18:50:55.799Z,97597.06
2023-01-31T18:56:05.554Z,97711.25
2023-01-31T19:01:13.886Z,97410.75
2023-01-31T19:06:18.606Z,97641.19
2023-01-31T19:11:23.257Z,97725.81
2023-01-31T19:16:29.488Z,97697.47
2023-01-31T19:21:33.655Z,97801.19
2023-01-31T19:26:36.442Z,97775.78
2023-01-31T19:31:38.907Z,97431.22
2023-01-31T19:36:44.885Z,97674.94
2023-01-31T19:41:47.264Z,97865.03
2023-01-31T19:46:52.395Z,97351.50
2023-01-31T19:51:54.720Z,97666.28
2023-01-31T19:56:57.099Z,97844.72
2023-01-31T20:01:59.416Z,97706.47
2023-01-31T20:07:01.776Z,97795.78
2023-01-31T20:12:04.447Z,97538.94
2023-01-31T20:17:08.533Z,97535.84
2023-01-31T20:22:10.759Z,97868.22
2023-01-31T20:27:13.031Z,97790.38
2023-01-31T20:32:17.553Z,97869.94
2023-01-31T20:37:19.782Z,97776.16
2023-01-31T20:42:22.096Z,97768.31
2023-01-31T20:47:24.458Z,97558.81
2023-01-31T20:52:26.772Z,97459.34
2023-01-31T20:57:28.996Z,97903.88
2023-01-31T21:02:31.294Z,97897.34
2023-01-31T21:07:33.517Z,97903.56
2023-01-31T21:12:35.860Z,97848.06
2023-01-31T21:17:40.578Z,97308.00
2023-01-31T21:22:42.989Z,97856.63
2023-01-31T21:27:45.271Z,97699.09
2023-01-31T21:32:47.553Z,97837.59
2023-01-31T21:37:50.130Z,97847.81
2023-01-31T21:42:53.567Z,97782.03
2023-01-31T21:48:15.592Z,97909.31
2023-01-31T21:53:18.112Z,97886.72
2023-01-31T21:58:21.083Z,97939.53
2023-01-31T22:03:23.396Z,97895.50
2023-01-31T22:08:25.632Z,97765.28
2023-01-31T22:13:27.884Z,97927.22
2023-01-31T22:18:30.299Z,97693.59
2023-01-31T22:23:33.429Z,97805.28
2023-01-31T22:28:36.038Z,97786.13
2023-01-31T22:33:40.120Z,97862.91
2023-01-31T22:38:42.768Z,97886.34
2023-01-31T22:43:48.526Z,97894.94
2023-01-31T22:48:51.283Z,97792.31
2023-01-31T22:53:55.073Z,97706.28
2023-01-31T22:59:00.723Z,97977.84
2023-01-31T23:04:05.559Z,97859.69
2023-01-31T23:09:07.836Z,97902.56
2023-01-31T23:14:10.089Z,97890.91
2023-01-31T23:19:13.202Z,97921.53
2023-01-31T23:24:15.527Z,97972.63
2023-01-31T23:29:17.799Z,97808.13
2023-01-31T23:34:20.079Z,97965.22
2023-01-31T23:39:22.303Z,97975.28
2023-01-31T23:44:24.576Z,98006.09
2023-01-31T23:49:26.845Z,97999.25
2023-01-31T23:54:29.123Z,97838.31
2023-01-31T23:59:31.665Z,97848.91
